Station: Portable Btsh (Dfes)  

  Atmospheric Gas Attenuation - ITU Rec 676-11   ----------------- dB/100km -----------------
Date Time Temp RH % AH g/m3 Dew Point Wind Direction Speed kph Gust kph Barometer mB Rainfall Since 9am 24GHz 47GHz 76GHz 122GHz 134GHz 241GHz
02/09 02:30 7.5 100 8.01 7.5 0 0 1013.1 0 18.6 26.8 40.6 106.4 98.4 337.6
02/09 02:20 7.9 100 8.22 7.9 0 0 1013.1 0 19.1 27.0 41.2 108.3 100.8 346.2
02/09 02:10 8.1 100 8.32 8.1 0 0 1013.1 0 19.3 27.1 41.6 109.1 102.0 350.3
02/09 02:00 8.1 100 8.32 8.1 0 0 1013.1 0 19.3 27.1 41.6 109.1 102.0 350.3
02/09 01:50 8.1 100 8.32 8.1 0 0 1013.1 0 19.3 27.1 41.6 109.1 102.0 350.3
02/09 01:40 7.9 100 8.22 7.9 0 0 1013.1 0 19.1 27.0 41.2 108.3 100.8 346.2
02/09 01:30 7.8 100 8.16 7.8 0 0 1013.1 0 18.9 26.9 41.0 107.7 100.1 343.7
02/09 01:20 7.9 100 8.22 7.9 0 0 1013.1 0 19.1 27.0 41.2 108.3 100.8 346.2
02/09 01:10 8.1 100 8.32 8.1 0 0 1013.1 0 19.3 27.1 41.6 109.1 102.0 350.3
02/09 01:00 8.2 100 8.38 8.2 0 0 1013.1 0 19.4 27.2 41.8 109.7 102.7 352.8
02/09 00:50 8.4 100 8.49 8.4 0 2 1013.1 0 19.6 27.3 42.1 110.7 104.0 357.3
02/09 00:40 8.5 99 8.46 8.4 0 2 1013.1 0 19.5 27.2 42.0 110.2 103.4 355.4
02/09 00:30 8.6 95 8.17 7.9 0 0 1013.1 0 18.9 26.7 40.7 106.7 99.2 340.6
02/09 00:20 9 95 8.38 8.2 0 0 1013.1 0 19.4 27.0 41.3 108.5 101.6 349.1
02/09 00:10 9.6 93 8.52 8.6 0 0 1013.1 0 19.6 27.0 41.6 109.3 102.8 353.3
02/09 00:00 10.2 95 9.04 9.5 0 2 1013.1 0 20.7 27.7 43.5 114.4 109.3 376.0
01/09 23:50 10.6 92 8.98 9.4 2 2 1013.1 0 20.6 27.5 43.0 113.1 107.8 371.1
01/09 23:40 10.8 92 9.1 9.6 0 2 1013.1 0 20.8 27.6 43.4 114.2 109.2 376.0
01/09 23:30 11.1 91 9.17 9.7 2 4 1013.1 0 20.9 27.7 43.6 114.5 109.8 378.0
01/09 23:20 11.3 89 9.08 9.6 0 2 1013.1 0 20.7 27.4 43.1 113.2 108.2 372.6
01/09 23:10 11.3 88 8.98 9.4 0 2 1013.1 0 20.5 27.3 42.7 112.1 106.9 367.7
01/09 23:00 11.5 87 8.99 9.5 0 2 1013.1 0 20.5 27.2 42.6 111.9 106.7 367.3
01/09 22:50 11.8 86 9.05 9.5 0 2 1013.1 0 20.7 27.2 42.7 112.1 107.1 368.8
01/09 22:40 12.1 83 8.9 9.4 2 2 1013.1 0 20.3 26.9 41.9 110.0 104.7 360.2
01/09 22:30 12.4 83 9.07 9.6 2 4 1013.1 0 20.7 27.1 42.4 111.5 106.6 366.9
01/09 22:20 12.7 81 9.02 9.5 4 4 1013.1 0 20.5 26.9 42.1 110.5 105.5 363.1
01/09 22:10 12.9 81 9.13 9.7 4 7 1013.1 0 20.8 27.0 42.4 111.4 106.7 367.4
01/09 22:00 13 80 9.07 9.7 6 9 1013.1 0 20.6 26.9 42.1 110.6 105.7 364.1
01/09 21:50 13 80 9.07 9.7 6 7 1013.1 0 20.6 26.9 42.1 110.6 105.7 364.1
01/09 21:40 13 81 9.19 9.8 6 6 1013.1 0 20.9 27.1 42.6 112.0 107.4 369.8
01/09 21:30 13 81 9.19 9.8 4 6 1013.1 0 20.9 27.1 42.6 112.0 107.4 369.8
01/09 21:20 13.1 80 9.13 9.8 4 6 1013.1 0 20.8 27.0 42.3 111.2 106.4 366.5
01/09 21:10 13.1 81 9.24 9.9 6 6 1013.1 0 21.0 27.2 42.8 112.4 107.9 371.7
01/09 21:00 13.1 80 9.13 9.8 6 6 1013.1 0 20.8 27.0 42.3 111.2 106.4 366.5
01/09 20:50 13.1 80 9.13 9.8 4 6 1013.1 0 20.8 27.0 42.3 111.2 106.4 366.5
01/09 20:40 13.2 79 9.07 9.7 6 6 1013.1 0 20.6 26.8 42.0 110.4 105.5 363.1
01/09 20:30 13.4 79 9.18 9.8 6 6 1013.1 0 20.9 27.0 42.4 111.3 106.7 367.4
01/09 20:20 13.6 78 9.18 9.9 4 4 1013.1 0 20.8 26.9 42.3 111.0 106.4 366.5
01/09 20:10 13.5 78 9.12 9.7 4 4 1013.1 0 20.7 26.8 42.1 110.5 105.7 364.1
01/09 20:00 13.5 79 9.24 9.9 4 4 1013.1 0 21.0 27.0 42.6 111.8 107.4 369.8
01/09 19:50 13.5 79 9.24 9.9 4 4 1013.1 0 21.0 27.0 42.6 111.8 107.4 369.8
01/09 19:40 13.5 78 9.12 9.8 4 4 1013.1 0 20.7 26.8 42.1 110.5 105.7 364.1
01/09 19:30 13.6 77 9.06 9.7 2 4 1013.1 0 20.6 26.7 41.8 109.7 104.8 360.8
01/09 19:20 13.6 78 9.18 9.8 2 2 1013.1 0 20.8 26.9 42.3 111.0 106.4 366.5
01/09 19:10 13.7 77 9.12 9.8 2 4 1013.1 0 20.7 26.8 42.0 110.2 105.5 363.2
01/09 19:00 13.7 77 9.12 9.7 4 4 1013.1 0 20.7 26.8 42.0 110.2 105.5 363.2
01/09 18:50 13.8 76 9.06 9.6 4 6 1013.1 0 20.6 26.6 41.7 109.4 104.5 359.9
01/09 18:40 14 74 8.93 9.5 6 7 1013.1 0 20.3 26.4 41.0 107.7 102.5 352.9
01/09 18:30 14.1 73 8.86 9.4 7 7 1013.1 0 20.1 26.2 40.7 106.8 101.4 349.2
01/09 18:20 14.2 73 8.91 9.4 7 9 1013.1 0 20.2 26.3 40.8 107.2 102.0 351.1
01/09 18:10 14.4 72 8.9 9.4 7 9 1013.1 0 20.2 26.2 40.7 106.8 101.6 349.7
01/09 18:00 14.4 72 8.9 9.4 9 9 1013.1 0 20.2 26.2 40.7 106.8 101.6 349.7
01/09 17:50 14.5 71 8.83 9.4 9 9 1013.1 0 20.0 26.1 40.4 106.0 100.5 346.0
01/09 17:40 14.5 71 8.83 9.4 9 11 1013.1 0 20.0 26.1 40.4 106.0 100.5 346.0
01/09 17:30 14.6 71 8.88 9.4 9 13 1013.1 0 20.1 26.1 40.5 106.4 101.1 347.9
01/09 17:20 14.7 71 8.94 9.6 9 11 1013.1 0 20.3 26.2 40.7 106.9 101.7 350.2
01/09 17:10 14.9 70 8.92 9.5 9 11 1013.1 0 20.2 26.1 40.5 106.4 101.2 348.4
01/09 17:00 15.2 68 8.83 9.4 11 15 1013.1 0 20.0 25.9 40.0 105.0 99.6 343.0
01/09 16:50 15.4 67 8.8 9.3 15 17 1013.1 0 19.9 25.7 39.8 104.4 99.0 340.7
01/09 16:40 15.6 67 8.91 9.6 13 15 1013.1 0 20.2 25.9 40.1 105.3 100.2 344.9
01/09 16:30 15.6 67 8.91 9.5 13 15 1013.1 0 20.2 25.9 40.1 105.3 100.2 344.9
01/09 16:20 15.6 66 8.78 9.3 15 17 1013.1 0 19.9 25.7 39.6 104.0 98.5 339.0
01/09 16:10 15.8 65 8.75 9.2 13 15 1013.1 0 19.8 25.6 39.4 103.4 97.8 336.7
01/09 16:00 16 65 8.86 9.4 11 15 1013.1 0 20.0 25.7 39.7 104.3 99.0 340.9
01/09 15:50 16.1 65 8.91 9.5 17 19 1013.1 0 20.1 25.7 39.9 104.7 99.5 342.7
01/09 15:40 16.5 63 8.85 9.6 15 17 1013.1 0 20.0 25.5 39.4 103.5 98.2 338.3
01/09 15:30 16.7 60 8.53 9 17 19 1013.1 0 19.3 25.0 38.1 100.0 93.9 323.1
01/09 15:20 16.8 60 8.58 9 17 22 1013.1 0 19.4 25.0 38.2 100.3 94.4 325.0
01/09 15:10 16.9 61 8.77 9.4 17 19 1013.1 0 19.8 25.3 38.9 102.2 96.7 333.0
01/09 15:00 17.3 58 8.54 9.1 19 20 1013.1 0 19.3 24.8 37.9 99.3 93.3 321.2
01/09 14:50 17.4 59 8.74 9.4 19 20 1013.1 0 19.7 25.1 38.6 101.2 95.7 329.6
01/09 14:40 17.6 61 9.15 10 17 19 1013.1 0 20.6 25.7 40.1 105.2 100.7 347.0
01/09 14:30 17.9 60 9.16 10.1 17 20 1013.1 0 20.6 25.6 39.9 104.9 100.4 346.1
01/09 14:20 17.8 60 9.11 10 19 20 1013.1 0 20.5 25.5 39.8 104.5 99.9 344.3
01/09 14:10 18.6 57 9.07 10.1 17 19 1013.1 0 20.4 25.3 39.3 103.1 98.4 339.1
01/09 14:00 18.1 60 9.27 10.3 19 22 1013.1 0 20.8 25.7 40.3 105.8 101.6 350.1
01/09 13:50 19.2 55 9.07 9.9 17 22 1013.1 0 20.3 25.1 39.0 102.3 97.6 336.5
01/09 13:40 18.1 58 8.96 9.9 17 20 1013.1 0 20.1 25.2 39.1 102.6 97.6 336.4
01/09 13:30 19.5 54 9.06 10 17 20 1013.1 0 20.3 25.0 38.8 101.8 97.2 334.9
01/09 13:20 18.6 56 8.91 9.8 17 19 1013.1 0 20.0 25.0 38.6 101.4 96.4 332.1
01/09 13:10 18.6 57 9.07 10.1 19 20 1013.1 0 20.4 25.3 39.3 103.1 98.4 339.1
01/09 13:00 18.3 57 8.91 9.7 17 20 1013.1 0 20.0 25.1 38.8 101.8 96.8 333.3
01/09 12:50 19.5 57 9.57 10.9 19 20 1013.1 0 21.4 25.8 40.7 107.0 103.5 357.2
01/09 12:40 18.8 57 9.18 10.1 19 20 1013.1 0 20.6 25.4 39.6 103.9 99.5 343.1
01/09 12:30 20.1 52 9.04 10.1 17 19 1013.1 0 20.2 24.8 38.4 100.8 96.2 331.5
01/09 12:20 19.7 54 9.17 10.2 15 20 1013.1 0 20.5 25.1 39.1 102.7 98.3 338.8
01/09 12:10 19.3 56 9.29 10.4 15 22 1013.1 0 20.8 25.4 39.8 104.4 100.3 345.8
01/09 12:00 19.5 55 9.23 10.3 15 17 1013.1 0 20.6 25.3 39.4 103.5 99.3 342.3
01/09 11:50 18.9 59 9.56 10.7 17 22 1013.1 0 21.4 25.9 41.0 107.7 104.2 359.5
01/09 11:40 19.3 56 9.29 10.3 15 19 1013.1 0 20.8 25.4 39.8 104.4 100.3 345.8
01/09 11:30 19.8 55 9.39 10.6 15 19 1013.1 0 21.0 25.4 39.9 104.8 100.9 348.0
01/09 11:20 19.4 55 9.18 10.2 15 19 1013.1 0 20.5 25.2 39.3 103.1 98.8 340.5
01/09 11:10 19.8 53 9.05 10 15 19 1013.1 0 20.3 24.9 38.6 101.3 96.7 333.2
01/09 11:00 19.5 56 9.4 10.6 13 17 1013.1 0 21.0 25.5 40.1 105.3 101.4 349.7
01/09 10:50 19.4 57 9.51 10.7 15 19 1013.1 0 21.2 25.7 40.5 106.5 102.9 355.0
01/09 10:40 19.7 55 9.34 10.5 17 20 1013.1 0 20.9 25.4 39.7 104.4 100.4 346.2
01/09 10:30 19.5 56 9.4 10.7 17 20 1013.1 0 21.0 25.5 40.1 105.3 101.4 349.7
01/09 10:20 19.2 56 9.23 10.4 17 19 1013.1 0 20.7 25.3 39.6 103.9 99.6 343.6
01/09 10:10 19.3 56 9.29 10.4 17 20 1013.1 0 20.8 25.4 39.8 104.4 100.3 345.8
01/09 10:00 19 59 9.61 10.9 17 20 1013.1 0 21.5 26.0 41.1 108.1 104.7 361.3

Last Refresh: 02-Sep-2026 04:17:04

Bureau of Meteorology